Time;durP1;ratioP1;P1;durP2;ratioP2;P2;SDS_P1;SDS_P2;PMS_P1;PMS_P2;Temp;Humidity;BMP_temperature;BMP_pressure;BME280_temperature;BME280_humidity;BME280_pressure;Samples;Min_cycle;Max_cycle;Signal;HPM_P1;HPM_P2
2023/09/12 00:01:19;;;;;;;55.42;42.03;;;;;;;;;;10270041;28;20539;-66
2023/09/12 00:06:15;;;;;;;61.78;43.85;;;;;;;;;;10260654;28;20134;-65
2023/09/12 00:11:12;;;;;;;60.80;45.08;;;;;;;;;;10258994;28;20417;-67
2023/09/12 00:16:11;;;;;;;62.13;48.15;;;;;;;;;;10258690;28;20144;-68
2023/09/12 00:21:08;;;;;;;72.88;52.45;;;;;;;;;;10260006;28;20057;-67
2023/09/12 00:26:04;;;;;;;72.25;54.28;;;;;;;;;;10263948;28;20128;-68
2023/09/12 00:31:00;;;;;;;79.18;51.70;;;;;;;;;;10250323;28;20096;-68
2023/09/12 00:35:57;;;;;;;68.10;51.42;;;;;;;;;;10261316;28;20124;-67
2023/09/12 00:40:53;;;;;;;70.18;49.22;;;;;;;;;;10258724;28;20132;-68
2023/09/12 00:45:49;;;;;;;61.67;44.97;;;;;;;;;;10277861;28;20598;-68
2023/09/12 00:50:46;;;;;;;62.85;45.97;;;;;;;;;;10257718;28;20072;-67
2023/09/12 00:55:46;;;;;;;61.42;42.75;;;;;;;;;;10274785;28;20137;-67
2023/09/12 01:00:43;;;;;;;48.45;37.35;;;;;;;;;;10271210;28;20045;-68
2023/09/12 01:05:41;;;;;;;43.35;34.72;;;;;;;;;;10270258;28;20041;-67
2023/09/12 01:10:38;;;;;;;45.13;35.28;;;;;;;;;;10275261;28;20308;-66
2023/09/12 01:15:34;;;;;;;39.63;33.55;;;;;;;;;;10272283;28;20056;-66
2023/09/12 01:20:32;;;;;;;45.03;32.92;;;;;;;;;;10269782;28;20045;-67
2023/09/12 01:25:47;;;;;;;40.08;31.65;;;;;;;;;;10272130;28;20432;-67
2023/09/12 01:30:45;;;;;;;40.17;31.65;;;;;;;;;;10265637;28;20358;-67
2023/09/12 01:35:43;;;;;;;42.08;31.45;;;;;;;;;;10266184;28;20044;-67
2023/09/12 01:40:43;;;;;;;45.42;31.85;;;;;;;;;;10261469;28;20095;-68
2023/09/12 01:45:40;;;;;;;35.65;29.98;;;;;;;;;;10263314;28;20053;-67
2023/09/12 01:50:36;;;;;;;39.85;33.88;;;;;;;;;;10261342;28;20046;-67
2023/09/12 01:55:33;;;;;;;37.90;28.75;;;;;;;;;;10271210;28;20143;-67
2023/09/12 02:00:29;;;;;;;33.50;28.15;;;;;;;;;;10268347;28;20049;-67
2023/09/12 02:05:26;;;;;;;37.70;31.17;;;;;;;;;;10264978;28;20093;-67
2023/09/12 02:10:22;;;;;;;41.88;33.13;;;;;;;;;;10270602;28;20459;-67
2023/09/12 02:15:19;;;;;;;42.72;34.05;;;;;;;;;;10274090;28;20436;-67
2023/09/12 02:20:15;;;;;;;43.72;35.22;;;;;;;;;;10270300;28;20507;-67
2023/09/12 02:25:12;;;;;;;41.85;31.02;;;;;;;;;;10282539;28;20052;-67
2023/09/12 02:30:09;;;;;;;41.08;31.42;;;;;;;;;;10279291;28;20053;-67
2023/09/12 02:35:05;;;;;;;39.08;31.02;;;;;;;;;;10257878;28;20142;-67
2023/09/12 02:40:05;;;;;;;39.85;32.55;;;;;;;;;;10264325;28;20045;-67
2023/09/12 02:45:01;;;;;;;41.30;34.08;;;;;;;;;;10265815;28;20424;-67
2023/09/12 02:49:57;;;;;;;36.25;31.15;;;;;;;;;;10270191;28;20083;-67
2023/09/12 02:54:54;;;;;;;37.10;28.70;;;;;;;;;;10262416;28;20049;-67
2023/09/12 02:59:50;;;;;;;39.03;33.03;;;;;;;;;;10269163;28;20110;-66
2023/09/12 03:04:46;;;;;;;47.10;33.20;;;;;;;;;;10259652;28;20128;-66
2023/09/12 03:09:43;;;;;;;48.05;34.53;;;;;;;;;;10258197;28;20551;-68
2023/09/12 03:14:39;;;;;;;49.85;37.00;;;;;;;;;;10262406;28;20049;-66
2023/09/12 03:19:35;;;;;;;45.70;36.58;;;;;;;;;;10264574;28;20140;-65
2023/09/12 03:24:32;;;;;;;52.53;39.53;;;;;;;;;;10258841;28;20566;-67
2023/09/12 03:29:29;;;;;;;53.78;39.28;;;;;;;;;;10260434;28;20072;-67
2023/09/12 03:34:25;;;;;;;43.85;36.33;;;;;;;;;;10263380;28;20510;-70
2023/09/12 03:39:22;;;;;;;54.60;38.72;;;;;;;;;;10254465;28;20041;-70
2023/09/12 03:44:21;;;;;;;52.10;42.25;;;;;;;;;;10270099;28;20053;-69
2023/09/12 03:49:17;;;;;;;60.28;45.28;;;;;;;;;;10258369;28;20050;-70
2023/09/12 03:54:14;;;;;;;53.13;40.13;;;;;;;;;;10247384;28;20057;-68
2023/09/12 03:59:11;;;;;;;49.58;42.30;;;;;;;;;;10252575;28;20064;-69
2023/09/12 04:04:08;;;;;;;52.40;45.60;;;;;;;;;;10254191;28;20544;-71
2023/09/12 04:09:04;;;;;;;51.67;42.00;;;;;;;;;;10265437;28;20049;-69
2023/09/12 04:14:01;;;;;;;52.00;44.50;;;;;;;;;;10251896;28;20046;-69
2023/09/12 04:18:58;;;;;;;55.35;47.03;;;;;;;;;;10249537;28;20132;-68
2023/09/12 04:23:55;;;;;;;53.25;44.15;;;;;;;;;;10262413;28;20037;-71
2023/09/12 04:28:52;;;;;;;59.95;46.15;;;;;;;;;;10266996;28;20057;-71
2023/09/12 04:33:50;;;;;;;65.53;49.25;;;;;;;;;;10270612;28;20053;-68
2023/09/12 04:38:46;;;;;;;55.63;43.70;;;;;;;;;;10260504;28;20054;-70
2023/09/12 04:43:44;;;;;;;62.13;46.03;;;;;;;;;;10274197;28;20041;-72
2023/09/12 04:48:41;;;;;;;62.10;49.03;;;;;;;;;;10262313;28;20045;-70
2023/09/12 04:53:39;;;;;;;61.15;49.55;;;;;;;;;;10269873;28;20107;-70
2023/09/12 04:58:36;;;;;;;75.85;52.88;;;;;;;;;;10266238;28;20053;-70
2023/09/12 05:03:33;;;;;;;63.25;50.70;;;;;;;;;;10278748;28;20102;-70
2023/09/12 05:08:29;;;;;;;69.90;56.20;;;;;;;;;;10276231;28;20072;-70
2023/09/12 05:13:26;;;;;;;67.60;53.13;;;;;;;;;;10275868;28;20566;-70
2023/09/12 05:18:22;;;;;;;67.75;53.33;;;;;;;;;;10257851;28;20041;-71
2023/09/12 05:23:19;;;;;;;73.30;53.13;;;;;;;;;;10267336;28;20052;-72
2023/09/12 05:28:15;;;;;;;67.15;50.60;;;;;;;;;;10239919;28;20103;-71
2023/09/12 05:33:12;;;;;;;67.40;51.58;;;;;;;;;;10245841;28;20051;-71
2023/09/12 05:38:08;;;;;;;77.13;54.53;;;;;;;;;;10271425;28;20052;-71
2023/09/12 05:43:05;;;;;;;70.68;54.17;;;;;;;;;;10279790;28;20447;-71
2023/09/12 05:48:03;;;;;;;66.78;52.13;;;;;;;;;;10283117;28;20091;-71
2023/09/12 05:52:59;;;;;;;67.43;52.45;;;;;;;;;;10264489;28;20320;-71
2023/09/12 05:57:56;;;;;;;63.95;51.42;;;;;;;;;;10257349;28;20503;-71
2023/09/12 06:02:53;;;;;;;70.22;55.92;;;;;;;;;;10276601;28;20083;-71
2023/09/12 06:07:49;;;;;;;72.70;53.72;;;;;;;;;;10276005;28;20041;-71
2023/09/12 06:12:45;;;;;;;72.50;54.38;;;;;;;;;;10269328;28;20119;-71
2023/09/12 06:17:42;;;;;;;73.10;54.10;;;;;;;;;;10271783;28;20505;-71
2023/09/12 06:22:39;;;;;;;71.40;54.63;;;;;;;;;;10272557;28;20052;-71
2023/09/12 06:27:35;;;;;;;76.80;56.63;;;;;;;;;;10273861;28;20068;-72
2023/09/12 06:32:31;;;;;;;66.00;53.45;;;;;;;;;;10275562;28;20138;-71
2023/09/12 06:37:28;;;;;;;73.13;51.80;;;;;;;;;;10259809;28;20052;-72
2023/09/12 06:42:24;;;;;;;78.03;55.85;;;;;;;;;;10262180;28;20508;-71
2023/09/12 06:47:20;;;;;;;72.95;53.75;;;;;;;;;;10280606;28;20056;-72
2023/09/12 06:52:17;;;;;;;67.05;50.30;;;;;;;;;;10260685;28;20140;-71
2023/09/12 06:57:13;;;;;;;66.65;51.60;;;;;;;;;;10219965;28;20050;-72
2023/09/12 07:02:12;;;;;;;71.47;51.10;;;;;;;;;;10224954;28;20144;-71
2023/09/12 07:07:09;;;;;;;65.78;51.08;;;;;;;;;;10221063;28;20049;-71
2023/09/12 07:12:05;;;;;;;65.35;50.15;;;;;;;;;;10220518;28;20155;-71
2023/09/12 07:17:02;;;;;;;61.15;49.88;;;;;;;;;;10213308;28;20059;-71
2023/09/12 07:21:58;;;;;;;64.88;49.63;;;;;;;;;;10217168;28;20685;-71
2023/09/12 07:26:55;;;;;;;64.80;47.17;;;;;;;;;;10222493;28;20052;-71
2023/09/12 07:31:52;;;;;;;62.78;46.97;;;;;;;;;;10228477;28;20661;-71
2023/09/12 07:36:51;;;;;;;66.13;47.42;;;;;;;;;;10210996;28;20049;-70
2023/09/12 07:41:47;;;;;;;59.05;44.35;;;;;;;;;;10231793;28;20048;-70
2023/09/12 07:46:43;;;;;;;63.60;47.33;;;;;;;;;;10228022;28;20053;-70
2023/09/12 07:51:40;;;;;;;52.63;45.28;;;;;;;;;;10228625;28;20057;-70
2023/09/12 07:56:42;;;;;;;53.80;45.13;;;;;;;;;;10293374;23;20084;-70
2023/09/12 08:01:38;;;;;;;51.33;41.88;;;;;;;;;;10265467;28;20084;-70
2023/09/12 08:06:35;;;;;;;54.72;45.22;;;;;;;;;;10267964;28;20578;-70
2023/09/12 08:11:51;;;;;;;48.35;42.90;;;;;;;;;;10265838;28;20067;-68
2023/09/12 08:16:47;;;;;;;58.83;46.33;;;;;;;;;;10276338;28;20044;-70
2023/09/12 08:21:45;;;;;;;71.95;50.97;;;;;;;;;;10275272;28;20060;-70
2023/09/12 08:26:42;;;;;;;66.60;49.25;;;;;;;;;;10316869;22;20131;-70
2023/09/12 08:31:38;;;;;;;65.30;49.25;;;;;;;;;;10298709;28;20423;-70
2023/09/12 08:36:36;;;;;;;61.17;49.50;;;;;;;;;;10292020;28;20501;-70
2023/09/12 08:41:32;;;;;;;67.32;48.92;;;;;;;;;;10292726;28;20479;-70
2023/09/12 08:46:29;;;;;;;57.63;45.33;;;;;;;;;;10292157;28;20044;-70
2023/09/12 08:51:25;;;;;;;66.32;52.80;;;;;;;;;;10285691;28;20045;-70
2023/09/12 08:56:21;;;;;;;49.78;44.30;;;;;;;;;;10297705;28;20198;-70
2023/09/12 09:01:18;;;;;;;50.25;41.97;;;;;;;;;;10306335;28;20114;-70
2023/09/12 09:06:15;;;;;;;43.95;39.22;;;;;;;;;;10310436;28;20581;-70
2023/09/12 09:11:12;;;;;;;49.20;41.17;;;;;;;;;;10292900;28;20055;-70
2023/09/12 09:16:32;;;;;;;48.83;37.97;;;;;;;;;;10365576;22;20058;-70
2023/09/12 09:21:48;;;;;;;43.22;38.33;;;;;;;;;;10261692;28;20053;-70
2023/09/12 09:26:45;;;;;;;58.10;40.15;;;;;;;;;;10249385;22;20473;-70
2023/09/12 09:31:42;;;;;;;43.85;36.10;;;;;;;;;;10172724;28;20042;-70
2023/09/12 09:36:49;;;;;;;43.72;34.58;;;;;;;;;;10180634;28;20138;-70
2023/09/12 09:41:49;;;;;;;39.67;35.35;;;;;;;;;;10192307;28;20141;-70
2023/09/12 09:46:46;;;;;;;44.70;37.65;;;;;;;;;;10167955;28;20068;-70
2023/09/12 09:51:45;;;;;;;41.15;36.55;;;;;;;;;;10162484;28;20042;-70
2023/09/12 09:56:48;;;;;;;45.05;37.95;;;;;;;;;;10233124;23;20068;-70
2023/09/12 10:01:45;;;;;;;41.33;36.20;;;;;;;;;;10221609;28;20510;-70
2023/09/12 10:06:43;;;;;;;35.83;31.05;;;;;;;;;;10282237;22;20552;-70
2023/09/12 10:11:40;;;;;;;32.42;28.70;;;;;;;;;;10167642;28;20057;-70
2023/09/12 10:16:44;;;;;;;32.58;27.80;;;;;;;;;;10190398;28;20046;-70
2023/09/12 10:21:53;;;;;;;43.05;36.47;;;;;;;;;;10190796;28;20048;-70
2023/09/12 10:26:50;;;;;;;24.85;22.48;;;;;;;;;;10191606;28;20060;-70
2023/09/12 10:31:47;;;;;;;29.60;23.73;;;;;;;;;;10186951;28;20051;-70
2023/09/12 10:36:43;;;;;;;31.02;23.73;;;;;;;;;;10187288;28;20064;-70
2023/09/12 10:41:40;;;;;;;27.80;24.83;;;;;;;;;;10188848;28;20667;-70
2023/09/12 10:46:40;;;;;;;29.70;25.55;;;;;;;;;;10189641;28;20078;-70
2023/09/12 10:51:43;;;;;;;27.52;24.55;;;;;;;;;;10186296;28;20046;-70
2023/09/12 10:56:40;;;;;;;31.27;27.77;;;;;;;;;;10350626;23;20049;-70
2023/09/12 11:01:37;;;;;;;32.05;27.85;;;;;;;;;;10303061;28;20628;-70
2023/09/12 11:06:33;;;;;;;37.38;30.67;;;;;;;;;;10297524;28;20093;-70
2023/09/12 11:11:30;;;;;;;30.83;27.48;;;;;;;;;;10294185;28;20072;-70
2023/09/12 11:16:26;;;;;;;33.40;29.75;;;;;;;;;;10298565;28;20072;-69
2023/09/12 11:21:31;;;;;;;33.28;29.40;;;;;;;;;;10303095;28;20102;-70
2023/09/12 11:26:27;;;;;;;32.67;29.23;;;;;;;;;;10302093;28;20040;-70
2023/09/12 11:31:25;;;;;;;33.00;29.00;;;;;;;;;;10304619;28;20072;-70
2023/09/12 11:36:22;;;;;;;34.47;30.77;;;;;;;;;;10301410;28;20058;-70
2023/09/12 11:41:36;;;;;;;35.60;31.77;;;;;;;;;;10287567;28;20048;-70
2023/09/12 11:46:34;;;;;;;37.58;33.22;;;;;;;;;;10302846;28;20084;-70
2023/09/12 11:51:31;;;;;;;39.25;34.95;;;;;;;;;;10288101;28;20055;-70
2023/09/12 11:56:29;;;;;;;37.03;32.95;;;;;;;;;;10300449;28;20056;-70
2023/09/12 12:01:27;;;;;;;36.30;32.38;;;;;;;;;;10307322;28;20072;-70
2023/09/12 12:06:24;;;;;;;37.88;33.88;;;;;;;;;;10298307;28;20122;-70
2023/09/12 12:11:20;;;;;;;37.95;31.75;;;;;;;;;;10294402;28;20048;-70
2023/09/12 12:16:17;;;;;;;35.38;30.50;;;;;;;;;;10292013;28;20063;-70
2023/09/12 12:21:14;;;;;;;31.45;28.25;;;;;;;;;;10295014;28;20065;-70
2023/09/12 12:26:10;;;;;;;29.33;26.20;;;;;;;;;;10306650;28;20052;-70
2023/09/12 12:31:07;;;;;;;29.10;26.02;;;;;;;;;;10291061;28;20071;-69
2023/09/12 12:36:04;;;;;;;30.88;27.67;;;;;;;;;;10296303;28;20550;-69
2023/09/12 12:41:01;;;;;;;32.40;28.83;;;;;;;;;;10294786;28;20053;-70
2023/09/12 12:45:58;;;;;;;31.63;28.42;;;;;;;;;;10315127;28;20071;-69
2023/09/12 12:50:55;;;;;;;30.30;27.20;;;;;;;;;;10305220;28;20051;-69
2023/09/12 12:55:51;;;;;;;30.48;27.35;;;;;;;;;;10305388;28;20063;-69
2023/09/12 13:00:47;;;;;;;28.65;25.58;;;;;;;;;;10302336;28;20520;-70
2023/09/12 13:05:44;;;;;;;33.60;30.20;;;;;;;;;;10305417;28;20061;-70
2023/09/12 13:10:42;;;;;;;30.77;27.60;;;;;;;;;;10284190;28;20067;-70
2023/09/12 13:15:39;;;;;;;29.13;26.08;;;;;;;;;;10305362;28;20052;-70
2023/09/12 13:20:35;;;;;;;30.20;27.10;;;;;;;;;;10295796;28;20044;-70
2023/09/12 13:25:31;;;;;;;30.30;27.30;;;;;;;;;;10273655;22;20053;-70
2023/09/12 13:30:27;;;;;;;31.58;28.25;;;;;;;;;;10256763;28;20061;-70
2023/09/12 13:35:24;;;;;;;32.80;29.40;;;;;;;;;;10233404;28;20046;-70
2023/09/12 13:40:23;;;;;;;29.40;26.40;;;;;;;;;;10226146;28;20520;-70
2023/09/12 13:45:20;;;;;;;28.25;25.35;;;;;;;;;;10228327;28;20053;-69
2023/09/12 13:50:16;;;;;;;27.83;25.02;;;;;;;;;;10227710;28;20050;-70
2023/09/12 13:55:15;;;;;;;26.30;23.70;;;;;;;;;;10235914;28;20115;-70
2023/09/12 14:00:33;;;;;;;27.58;24.90;;;;;;;;;;10222450;28;20568;-70
2023/09/12 14:05:33;;;;;;;25.13;22.73;;;;;;;;;;10225252;28;20536;-70
2023/09/12 14:10:30;;;;;;;28.33;25.40;;;;;;;;;;10225768;28;21204;-70
2023/09/12 14:15:33;;;;;;;27.30;24.70;;;;;;;;;;10223693;28;20127;-70
2023/09/12 14:20:31;;;;;;;30.73;27.83;;;;;;;;;;10211362;28;20133;-69
2023/09/12 14:25:27;;;;;;;31.40;27.77;;;;;;;;;;10217350;28;20052;-70
2023/09/12 14:30:33;;;;;;;30.00;27.17;;;;;;;;;;10216572;28;20055;-70
2023/09/12 14:35:30;;;;;;;30.55;27.40;;;;;;;;;;10223133;28;20065;-70
2023/09/12 14:40:27;;;;;;;30.90;26.42;;;;;;;;;;10226688;28;20046;-70
2023/09/12 14:45:25;;;;;;;29.67;26.60;;;;;;;;;;10222303;28;20509;-70
2023/09/12 14:50:26;;;;;;;28.10;25.10;;;;;;;;;;10201093;28;20476;-70
2023/09/12 14:55:36;;;;;;;27.00;24.33;;;;;;;;;;10222567;28;20050;-70
2023/09/12 15:00:33;;;;;;;26.85;24.02;;;;;;;;;;10221502;28;20505;-70
2023/09/12 15:05:30;;;;;;;28.98;25.83;;;;;;;;;;10213235;28;20053;-71
2023/09/12 15:10:27;;;;;;;28.85;24.30;;;;;;;;;;10208352;28;20717;-71
2023/09/12 15:15:23;;;;;;;26.17;23.50;;;;;;;;;;10217749;28;20065;-71
2023/09/12 15:20:19;;;;;;;28.05;24.98;;;;;;;;;;10199160;28;20119;-71
2023/09/12 15:25:16;;;;;;;28.08;25.20;;;;;;;;;;10191772;28;20552;-71
2023/09/12 15:30:12;;;;;;;27.55;24.85;;;;;;;;;;10192132;28;20057;-72
2023/09/12 15:35:10;;;;;;;23.88;21.50;;;;;;;;;;10185740;28;20531;-71
2023/09/12 15:40:07;;;;;;;24.90;22.20;;;;;;;;;;10197008;28;20141;-71
2023/09/12 15:45:07;;;;;;;22.10;19.92;;;;;;;;;;10202327;28;20054;-71
2023/09/12 15:50:04;;;;;;;23.67;21.42;;;;;;;;;;10174520;28;20053;-70
2023/09/12 15:55:01;;;;;;;26.63;22.52;;;;;;;;;;10154171;28;20084;-71
2023/09/12 15:59:59;;;;;;;25.10;22.52;;;;;;;;;;10175802;28;20061;-70
2023/09/12 16:04:55;;;;;;;22.60;20.10;;;;;;;;;;10240971;23;20060;-70
2023/09/12 16:09:52;;;;;;;23.27;20.77;;;;;;;;;;10236751;28;20176;-70
2023/09/12 16:14:48;;;;;;;22.70;19.73;;;;;;;;;;10220445;28;20066;-70
2023/09/12 16:19:44;;;;;;;22.05;19.67;;;;;;;;;;10206122;28;20596;-71
2023/09/12 16:24:41;;;;;;;24.42;21.88;;;;;;;;;;10190763;28;20056;-70
2023/09/12 16:29:37;;;;;;;20.38;18.33;;;;;;;;;;10203115;28;20049;-69
2023/09/12 16:34:34;;;;;;;21.15;18.98;;;;;;;;;;10181337;28;20054;-68
2023/09/12 16:39:31;;;;;;;20.98;18.52;;;;;;;;;;10193811;28;20101;-69
2023/09/12 16:44:27;;;;;;;21.33;19.33;;;;;;;;;;10194094;28;20066;-69
2023/09/12 16:49:23;;;;;;;22.02;19.63;;;;;;;;;;10198929;28;20054;-69
2023/09/12 16:54:20;;;;;;;22.88;19.80;;;;;;;;;;10188701;28;20057;-71
2023/09/12 16:59:16;;;;;;;22.17;19.75;;;;;;;;;;10183175;28;20471;-69
2023/09/12 17:04:13;;;;;;;22.52;19.42;;;;;;;;;;10197783;28;20042;-70
2023/09/12 17:09:09;;;;;;;22.60;20.30;;;;;;;;;;10193510;28;20417;-69
2023/09/12 17:14:06;;;;;;;23.25;20.95;;;;;;;;;;10196575;28;20078;-69
2023/09/12 17:19:03;;;;;;;19.77;18.05;;;;;;;;;;10165820;28;20053;-69
2023/09/12 17:24:00;;;;;;;20.05;18.17;;;;;;;;;;10185001;28;20048;-70
2023/09/12 17:28:56;;;;;;;20.10;18.20;;;;;;;;;;10188786;28;20050;-71
2023/09/12 17:33:55;;;;;;;19.60;17.70;;;;;;;;;;10182941;28;20077;-70
2023/09/12 17:38:55;;;;;;;21.45;19.33;;;;;;;;;;10188278;28;20042;-71
2023/09/12 17:43:52;;;;;;;18.20;16.40;;;;;;;;;;10243336;22;20061;-71
2023/09/12 17:48:51;;;;;;;22.13;19.92;;;;;;;;;;10259162;28;20037;-71
2023/09/12 17:53:48;;;;;;;20.13;18.13;;;;;;;;;;10267189;28;20036;-72
2023/09/12 17:58:46;;;;;;;21.25;19.42;;;;;;;;;;10252196;28;20110;-70
2023/09/12 18:03:43;;;;;;;20.67;18.83;;;;;;;;;;10256443;28;20049;-70
2023/09/12 18:08:46;;;;;;;21.90;20.08;;;;;;;;;;10264387;28;20049;-70
2023/09/12 18:13:46;;;;;;;23.33;21.05;;;;;;;;;;10264477;28;20077;-71
2023/09/12 18:18:43;;;;;;;25.23;22.70;;;;;;;;;;10265780;28;20095;-71
2023/09/12 18:23:42;;;;;;;21.95;19.85;;;;;;;;;;10256547;28;20041;-70
2023/09/12 18:28:41;;;;;;;24.58;22.35;;;;;;;;;;10245591;28;20559;-71
2023/09/12 18:33:38;;;;;;;23.38;21.00;;;;;;;;;;10246571;28;20140;-71
2023/09/12 18:38:35;;;;;;;25.20;22.90;;;;;;;;;;10247396;28;20064;-71
2023/09/12 18:43:31;;;;;;;24.95;22.63;;;;;;;;;;10253449;28;20472;-71
2023/09/12 18:48:28;;;;;;;25.10;22.80;;;;;;;;;;10253384;28;20648;-70
2023/09/12 18:53:24;;;;;;;27.10;24.48;;;;;;;;;;10255540;28;20870;-71
2023/09/12 18:58:24;;;;;;;25.23;22.52;;;;;;;;;;10233844;28;20066;-70
2023/09/12 19:03:21;;;;;;;25.17;22.20;;;;;;;;;;10250074;28;20049;-71
2023/09/12 19:08:19;;;;;;;25.48;22.88;;;;;;;;;;10258969;28;20083;-70
2023/09/12 19:13:19;;;;;;;27.33;24.63;;;;;;;;;;10250121;28;20677;-71
2023/09/12 19:18:18;;;;;;;26.42;23.38;;;;;;;;;;10263584;28;20535;-71
2023/09/12 19:23:15;;;;;;;27.50;23.45;;;;;;;;;;10249507;28;20056;-70
2023/09/12 19:28:11;;;;;;;26.85;24.25;;;;;;;;;;10256804;28;20068;-71
2023/09/12 19:33:09;;;;;;;27.02;24.42;;;;;;;;;;10257333;28;20401;-70
2023/09/12 19:38:05;;;;;;;24.42;22.02;;;;;;;;;;10254149;28;20057;-70
2023/09/12 19:43:02;;;;;;;27.77;25.00;;;;;;;;;;10239682;28;20075;-69
2023/09/12 19:47:58;;;;;;;27.40;24.50;;;;;;;;;;10227526;28;20560;-69
2023/09/12 19:52:57;;;;;;;26.77;23.88;;;;;;;;;;10259644;28;20144;-68
2023/09/12 19:57:53;;;;;;;27.88;24.95;;;;;;;;;;10246263;28;20052;-69
2023/09/12 20:02:50;;;;;;;27.85;25.00;;;;;;;;;;10261333;22;20136;-72
2023/09/12 20:07:49;;;;;;;30.77;27.70;;;;;;;;;;10245906;28;20049;-67
2023/09/12 20:12:45;;;;;;;29.73;26.58;;;;;;;;;;10259197;28;20041;-67
2023/09/12 20:17:42;;;;;;;32.63;29.05;;;;;;;;;;10214927;28;20056;-67
2023/09/12 20:22:38;;;;;;;30.27;27.15;;;;;;;;;;10222870;28;20516;-66
2023/09/12 20:27:35;;;;;;;36.53;30.92;;;;;;;;;;10197501;28;20062;-66
2023/09/12 20:32:31;;;;;;;31.17;27.90;;;;;;;;;;10201337;28;20073;-66
2023/09/12 20:37:43;;;;;;;30.92;27.80;;;;;;;;;;10218700;28;20115;-67
2023/09/12 20:42:39;;;;;;;31.70;28.45;;;;;;;;;;10228898;28;20548;-66
2023/09/12 20:47:36;;;;;;;33.85;29.13;;;;;;;;;;10224392;28;20044;-67
2023/09/12 20:52:33;;;;;;;32.53;29.40;;;;;;;;;;10213931;28;20137;-67
2023/09/12 20:57:29;;;;;;;34.53;27.95;;;;;;;;;;10231598;28;20500;-67
2023/09/12 21:02:25;;;;;;;32.25;28.83;;;;;;;;;;10226878;28;20060;-67
2023/09/12 21:07:22;;;;;;;30.80;27.63;;;;;;;;;;10268429;28;20060;-67
2023/09/12 21:12:18;;;;;;;35.00;31.25;;;;;;;;;;10265677;28;20052;-67
2023/09/12 21:17:15;;;;;;;30.30;27.27;;;;;;;;;;10248138;28;20088;-67
2023/09/12 21:22:11;;;;;;;31.55;28.33;;;;;;;;;;10272914;28;20064;-67
2023/09/12 21:27:07;;;;;;;36.47;28.33;;;;;;;;;;10273579;28;20087;-66
2023/09/12 21:32:04;;;;;;;31.77;28.40;;;;;;;;;;10263599;28;20057;-67
2023/09/12 21:37:00;;;;;;;31.33;27.95;;;;;;;;;;10266288;28;20559;-67
2023/09/12 21:41:57;;;;;;;31.70;28.30;;;;;;;;;;10267508;28;20098;-67
2023/09/12 21:46:53;;;;;;;33.30;29.73;;;;;;;;;;10276840;28;21315;-67
2023/09/12 21:51:49;;;;;;;30.90;27.63;;;;;;;;;;10252174;28;20079;-67
2023/09/12 21:56:46;;;;;;;29.90;26.83;;;;;;;;;;10252712;28;20049;-67
2023/09/12 22:01:43;;;;;;;32.90;29.45;;;;;;;;;;10266263;28;20067;-67
2023/09/12 22:06:39;;;;;;;32.10;28.75;;;;;;;;;;10265888;28;20470;-67
2023/09/12 22:11:35;;;;;;;31.08;27.83;;;;;;;;;;10277316;28;20079;-67
2023/09/12 22:16:32;;;;;;;31.33;27.40;;;;;;;;;;10259469;28;20535;-67
2023/09/12 22:21:29;;;;;;;28.13;25.35;;;;;;;;;;10266137;28;20065;-67
2023/09/12 22:26:25;;;;;;;31.23;26.80;;;;;;;;;;10256534;28;20405;-67
2023/09/12 22:31:22;;;;;;;30.92;27.73;;;;;;;;;;10277548;28;20579;-67
2023/09/12 22:36:19;;;;;;;30.80;26.77;;;;;;;;;;10258469;28;20536;-67
2023/09/12 22:41:15;;;;;;;29.27;26.38;;;;;;;;;;10264745;28;20064;-67
2023/09/12 22:46:12;;;;;;;28.02;25.17;;;;;;;;;;10258758;28;20048;-67
2023/09/12 22:51:09;;;;;;;28.75;25.95;;;;;;;;;;10270149;28;20409;-67
2023/09/12 22:56:05;;;;;;;30.45;27.48;;;;;;;;;;10252831;28;20516;-67
2023/09/12 23:01:02;;;;;;;28.73;25.92;;;;;;;;;;10261923;28;20116;-67
2023/09/12 23:05:59;;;;;;;29.20;26.23;;;;;;;;;;10264029;28;20051;-67
2023/09/12 23:10:56;;;;;;;32.25;28.95;;;;;;;;;;10262103;28;20111;-67
2023/09/12 23:15:52;;;;;;;29.70;26.75;;;;;;;;;;10262539;28;20555;-67
2023/09/12 23:20:49;;;;;;;32.03;28.83;;;;;;;;;;10266548;28;20167;-67
2023/09/12 23:25:45;;;;;;;30.33;27.02;;;;;;;;;;10261141;28;20049;-67
2023/09/12 23:30:41;;;;;;;33.15;29.92;;;;;;;;;;10263764;28;20048;-67
2023/09/12 23:35:38;;;;;;;30.75;27.65;;;;;;;;;;10254538;28;20059;-67
2023/09/12 23:40:38;;;;;;;33.20;29.40;;;;;;;;;;10245035;28;20049;-67
2023/09/12 23:45:35;;;;;;;32.20;28.85;;;;;;;;;;10245208;28;20056;-67
2023/09/12 23:50:31;;;;;;;33.20;29.65;;;;;;;;;;10259139;28;20127;-67
2023/09/12 23:55:28;;;;;;;33.42;30.20;;;;;;;;;;10253546;28;20099;-66
